CSCL Dalian — VRBH4 — position and weather

sailwx.info

Track history (hours):
 
Tides and Currents Weather Stations Pressure Air Temp Water Temp Dewpoint Dewpoint Depression Visibility Wind Speed Wind Dir Waves Ship Positions

CSCL Dalian

Last reported at 2015-May-19 01:22 UTC. Time now 2015-May-24 15:15 UTC.
Position N 17°02' W 060°57'.

Length 259.8 m; ; draft 11 m.

Type: Cargo ship. MMSI: 477014600.

Date/timePositionNaut miles runAvg speedWind from/ knotsBaromVisibWave heightAir tempDewpointWater temp
2015-May-19 01:22N 17°02' W 060°57'  
2015-May-13 00:20N 34°47' W 015°58'1417.8
2015-May-12 23:33N 34°51' W 015°41'1817.9
2015-May-12 22:33N 34°56' W 015°20'2518.0
2015-May-12 21:11N 35°02' W 014°51'1218.2
2015-May-12 20:32N 35°04' W 014°37'3618.2
2015-May-12 18:33N 35°11' W 013°54'1917.8
2015-May-12 17:28N 35°15' W 013°30'1617.6
2015-May-12 16:33N 35°18' W 013°11'1817.7
2015-May-12 15:33N 35°22' W 012°49'1818.0
2015-May-12 14:33N 35°25' W 012°28'1818.3
2015-May-12 13:33N 35°28' W 012°06'1818.3
2015-May-12 12:33N 35°31' W 011°44'1818.2
2015-May-12 11:33N 35°34' W 011°22'1817.9
2015-May-12 10:33N 35°39' W 011°00'1817.6
2015-May-12 09:33N 35°43' W 010°39'1817.8
2015-May-12 08:33N 35°47' W 010°18'1817.6
2015-May-12 07:33N 35°50' W 009°57'1817.7
2015-May-12 06:33N 35°51' W 009°35'1717.5
2015-May-12 05:33N 35°51' W 009°13'1817.7
2015-May-12 04:33N 35°52' W 008°51'1817.9
2015-May-12 03:33N 35°53' W 008°29'1817.9
2015-May-12 02:33N 35°54' W 008°07'1917.8
2015-May-12 01:29N 35°55' W 007°44'2218.1
2015-May-12 00:15N 35°55' W 007°16'1318.4
2015-May-11 23:33N 35°56' W 007°00'1917.8
2015-May-11 22:31N 35°56' W 006°38'1313.8
2015-May-11 21:33N 35°58' W 006°21'4414.5
2015-May-11 18:30N 36°00' W 005°27'1313.9
2015-May-11 17:33N 36°03' W 005°11'10314.6
2015-May-11 10:28N 36°20' W 003°04'1415.1
2015-May-11 09:33N 36°21' W 002°47'1515.2
2015-May-11 08:34N 36°24' W 002°29'1515.2
2015-May-11 07:33N 36°26' W 002°10'1815.6
2015-May-11 06:25N 36°37' W 001°52'1315.5
2015-May-11 05:33N 36°45' W 001°39'1615.5
2015-May-11 04:33N 36°54' W 001°23'1515.5
2015-May-11 03:33N 37°03' W 001°08'1615.9
2015-May-11 02:33N 37°13' W 000°52'1515.7
2015-May-11 01:34N 37°22' W 000°36'1515.1
2015-May-11 00:33N 37°32' W 000°22'1515.2
2015-May-10 23:33N 37°45' W 000°12'1515.2
2015-May-10 22:33N 37°58' W 000°01'1515.3
2015-May-10 21:33N 38°11' E 000°09'1515.0
2015-May-10 20:33N 38°23' E 000°20'1615.3
2015-May-10 19:31N 38°37' E 000°30'1515.1
2015-May-10 18:32N 38°49' E 000°41'1414.7
2015-May-10 17:33N 39°01' E 000°52'1514.7
2015-May-10 16:32N 39°12' E 001°03'2115.3
2015-May-10 15:11N 39°30' E 001°18'1415.7
2015-May-10 14:17N 39°42' E 001°29'1115.0
2015-May-10 13:34N 39°50' E 001°37'1515.1
2015-May-10 12:33N 40°02' E 001°49'1515.3
2015-May-10 11:33N 40°14' E 002°02'1515.2
2015-May-10 10:33N 40°26' E 002°15'1515.0
2015-May-10 09:33N 40°37' E 002°28'1515.3
2015-May-10 08:33N 40°48' E 002°42'1515.5
2015-May-10 07:33N 41°00' E 002°54'1515.4
2015-May-10 06:33N 41°13' E 003°06'14115.4
2015-May-09 21:22N 43°08' E 004°57'1113.7
2015-May-09 20:33N 43°19' E 004°59'8 7.7
2015-May-09 19:34N 43°24' E 004°51'0 0.0
2015-May-09 18:22N 43°24' E 004°51'0 0.0
2015-May-09 17:28N 43°24' E 004°51'0 0.0
2015-May-09 16:33N 43°24' E 004°51'0 0.0
2015-May-09 15:33N 43°24' E 004°51'0 0.0
2015-May-09 14:33N 43°24' E 004°51'0 0.0
2015-May-09 13:33N 43°24' E 004°51'0 0.0
2015-May-09 12:33N 43°24' E 004°51'0 0.0
2015-May-09 11:33N 43°24' E 004°51'0 0.0
2015-May-09 10:33N 43°24' E 004°51'0 0.0
2015-May-09 09:33N 43°24' E 004°51'0 0.0
2015-May-09 08:33N 43°24' E 004°51'0 0.0
2015-May-09 07:33N 43°24' E 004°51'0 0.0
2015-May-09 06:33N 43°24' E 004°51'0 0.0
2015-May-09 05:33N 43°24' E 004°51'0 0.0
2015-May-09 04:33N 43°24' E 004°51'0 0.0
2015-May-09 03:33N 43°24' E 004°51'0 0.0
2015-May-09 02:33N 43°24' E 004°51'0 0.0
2015-May-09 01:33N 43°24' E 004°51'  
Track history (hours):
 
Tides and Currents Weather Stations Pressure Air Temp Water Temp Dewpoint Dewpoint Depression Visibility Wind Speed Wind Dir Waves Ship Positions

CSCL Dalian

Last reported at 2015-May-19 01:22 UTC. Time now 2015-May-24 15:15 UTC.
Position N 17°02' W 060°57'.

Length 259.8 m; ; draft 11 m.

Type: Cargo ship. MMSI: 477014600.

Date/timePositionNaut miles runAvg speedWind from/ knotsBaromVisibWave heightAir tempDewpointWater temp
2015-May-19 01:22N 17°02' W 060°57'  
2015-May-13 00:20N 34°47' W 015°58'1417.8
2015-May-12 23:33N 34°51' W 015°41'1817.9
2015-May-12 22:33N 34°56' W 015°20'2518.0
2015-May-12 21:11N 35°02' W 014°51'1218.2
2015-May-12 20:32N 35°04' W 014°37'3618.2
2015-May-12 18:33N 35°11' W 013°54'1917.8
2015-May-12 17:28N 35°15' W 013°30'1617.6
2015-May-12 16:33N 35°18' W 013°11'1817.7
2015-May-12 15:33N 35°22' W 012°49'1818.0
2015-May-12 14:33N 35°25' W 012°28'1818.3
2015-May-12 13:33N 35°28' W 012°06'1818.3
2015-May-12 12:33N 35°31' W 011°44'1818.2
2015-May-12 11:33N 35°34' W 011°22'1817.9
2015-May-12 10:33N 35°39' W 011°00'1817.6
2015-May-12 09:33N 35°43' W 010°39'1817.8
2015-May-12 08:33N 35°47' W 010°18'1817.6
2015-May-12 07:33N 35°50' W 009°57'1817.7
2015-May-12 06:33N 35°51' W 009°35'1717.5
2015-May-12 05:33N 35°51' W 009°13'1817.7
2015-May-12 04:33N 35°52' W 008°51'1817.9
2015-May-12 03:33N 35°53' W 008°29'1817.9
2015-May-12 02:33N 35°54' W 008°07'1917.8
2015-May-12 01:29N 35°55' W 007°44'2218.1
2015-May-12 00:15N 35°55' W 007°16'1318.4
2015-May-11 23:33N 35°56' W 007°00'1917.8
2015-May-11 22:31N 35°56' W 006°38'1313.8
2015-May-11 21:33N 35°58' W 006°21'4414.5
2015-May-11 18:30N 36°00' W 005°27'1313.9
2015-May-11 17:33N 36°03' W 005°11'10314.6
2015-May-11 10:28N 36°20' W 003°04'1415.1
2015-May-11 09:33N 36°21' W 002°47'1515.2
2015-May-11 08:34N 36°24' W 002°29'1515.2
2015-May-11 07:33N 36°26' W 002°10'1815.6
2015-May-11 06:25N 36°37' W 001°52'1315.5
2015-May-11 05:33N 36°45' W 001°39'1615.5
2015-May-11 04:33N 36°54' W 001°23'1515.5
2015-May-11 03:33N 37°03' W 001°08'1615.9
2015-May-11 02:33N 37°13' W 000°52'1515.7
2015-May-11 01:34N 37°22' W 000°36'1515.1
2015-May-11 00:33N 37°32' W 000°22'1515.2
2015-May-10 23:33N 37°45' W 000°12'1515.2
2015-May-10 22:33N 37°58' W 000°01'1515.3
2015-May-10 21:33N 38°11' E 000°09'1515.0
2015-May-10 20:33N 38°23' E 000°20'1615.3
2015-May-10 19:31N 38°37' E 000°30'1515.1
2015-May-10 18:32N 38°49' E 000°41'1414.7
2015-May-10 17:33N 39°01' E 000°52'1514.7
2015-May-10 16:32N 39°12' E 001°03'2115.3
2015-May-10 15:11N 39°30' E 001°18'1415.7
2015-May-10 14:17N 39°42' E 001°29'1115.0
2015-May-10 13:34N 39°50' E 001°37'1515.1
2015-May-10 12:33N 40°02' E 001°49'1515.3
2015-May-10 11:33N 40°14' E 002°02'1515.2
2015-May-10 10:33N 40°26' E 002°15'1515.0
2015-May-10 09:33N 40°37' E 002°28'1515.3
2015-May-10 08:33N 40°48' E 002°42'1515.5
2015-May-10 07:33N 41°00' E 002°54'1515.4
2015-May-10 06:33N 41°13' E 003°06'14115.4
2015-May-09 21:22N 43°08' E 004°57'1113.7
2015-May-09 20:33N 43°19' E 004°59'8 7.7
2015-May-09 19:34N 43°24' E 004°51'0 0.0
2015-May-09 18:22N 43°24' E 004°51'0 0.0
2015-May-09 17:28N 43°24' E 004°51'0 0.0
2015-May-09 16:33N 43°24' E 004°51'0 0.0
2015-May-09 15:33N 43°24' E 004°51'0 0.0
2015-May-09 14:33N 43°24' E 004°51'0 0.0
2015-May-09 13:33N 43°24' E 004°51'0 0.0
2015-May-09 12:33N 43°24' E 004°51'0 0.0
2015-May-09 11:33N 43°24' E 004°51'0 0.0
2015-May-09 10:33N 43°24' E 004°51'0 0.0
2015-May-09 09:33N 43°24' E 004°51'0 0.0
2015-May-09 08:33N 43°24' E 004°51'0 0.0
2015-May-09 07:33N 43°24' E 004°51'0 0.0
2015-May-09 06:33N 43°24' E 004°51'0 0.0
2015-May-09 05:33N 43°24' E 004°51'0 0.0
2015-May-09 04:33N 43°24' E 004°51'0 0.0
2015-May-09 03:33N 43°24' E 004°51'0 0.0
2015-May-09 02:33N 43°24' E 004°51'0 0.0
2015-May-09 01:33N 43°24' E 004°51'  

Dump ship's entire track history